Portada
METAR-TAF:

METAR-TAF

Aeroports :

Amman, Jordània

latitud: 31-59N, longitud: 035-59E, altitud: 767 m

Observació

L'informe es va fer fa 1 hora i 7 minuts, a les 09:00 UTC
Vent 12 kt del Nord-Oest
Temperatura 25°C
Humitat 44%
Pressió 1014 hPa
Visibilitat 10 km o més
sense núvols per sota de 1500 mi sense presència de cumulonimbus.

METAR: OJAM 190900Z 31012KT CAVOK 25/12 Q1014 NOSIG

Hora: 13:07 (10:07 UTC)

Pronòstic

L'informe es va fer fa 5 hores i 11 minuts, a les 04:56 UTC
Pronòstic vàlid del 19 a les 06 UTC al 20 a les 12 UTC
Vent 12 kt del Oest/Nord-Oest
Visibilitat: 8000 m

TAF: OJAM 190456Z 1906/2012 30012KT 8000 NSC

Observacions i pronòstics meteorològics de més de 4000 aeroports (METAR i TAF).

Les estacions disponibles són els punts grocs i vermells al mapa.

Posi el ratolí al punt desitjat per veure el nom de l'estació.

Feu clic per veure les observacions i els pronòstics meteorològics.

Per canviar el mapa: feu clic els botons verds amb una creu de color negre per apropar; al botó verd amb un guió per allunyar la imatge; o en les fletxes verdes per a mapes adjacents.


METAR-TAF: